createdAt,value
2017-07-17T00:01:10.871Z,64.50
2017-07-17T00:03:38.944Z,63.40
2017-07-17T00:06:06.995Z,64.00
2017-07-17T00:08:35.075Z,64.60
2017-07-17T00:11:03.927Z,64.10
2017-07-17T00:13:31.988Z,64.60
2017-07-17T00:16:00.043Z,64.10
2017-07-17T00:18:28.531Z,64.10
2017-07-17T00:20:56.583Z,64.70
2017-07-17T00:23:24.642Z,63.90
2017-07-17T00:25:53.487Z,64.10
2017-07-17T00:28:21.574Z,64.50
2017-07-17T00:30:50.395Z,64.80
2017-07-17T00:33:18.451Z,64.20
2017-07-17T00:35:46.859Z,63.90
2017-07-17T00:38:14.915Z,64.50
2017-07-17T00:40:42.970Z,65.00
2017-07-17T00:43:11.064Z,64.80
2017-07-17T00:45:39.114Z,64.80
2017-07-17T00:48:07.175Z,65.10
2017-07-17T00:50:36.039Z,65.20
2017-07-17T00:53:04.094Z,65.20
2017-07-17T00:55:32.551Z,64.90
2017-07-17T00:58:00.639Z,64.70
2017-07-17T01:00:28.695Z,64.70
2017-07-17T01:02:57.515Z,64.70
2017-07-17T01:05:25.607Z,65.20
2017-07-17T01:07:53.671Z,65.40
2017-07-17T01:10:21.723Z,65.70
2017-07-17T01:12:49.811Z,65.70
2017-07-17T01:15:17.875Z,66.00
2017-07-17T01:17:45.930Z,65.90
2017-07-17T01:20:14.036Z,65.50
2017-07-17T01:22:42.085Z,65.00
2017-07-17T01:25:10.147Z,66.10
2017-07-17T01:27:38.218Z,66.30
2017-07-17T01:30:06.286Z,66.60
2017-07-17T01:32:34.769Z,66.10
2017-07-17T01:35:02.819Z,65.80
2017-07-17T01:37:30.881Z,66.40
2017-07-17T01:39:58.947Z,65.60
2017-07-17T01:42:27.005Z,66.20
2017-07-17T01:44:55.854Z,67.60
2017-07-17T01:47:23.905Z,67.60
2017-07-17T01:49:51.949Z,67.80
2017-07-17T01:52:20.034Z,66.90
2017-07-17T01:54:48.082Z,68.00
2017-07-17T01:57:16.894Z,68.30
2017-07-17T01:59:44.962Z,67.50
2017-07-17T02:02:13.029Z,67.60
2017-07-17T02:04:41.101Z,68.10
2017-07-17T02:07:09.149Z,67.20
2017-07-17T02:09:37.962Z,68.50
2017-07-17T02:12:06.430Z,67.30
2017-07-17T02:14:34.481Z,67.90
2017-07-17T02:17:02.533Z,67.70
2017-07-17T02:19:30.618Z,67.00
2017-07-17T02:21:58.666Z,66.60
2017-07-17T02:24:26.722Z,66.70
2017-07-17T02:26:54.800Z,67.10
2017-07-17T02:29:22.848Z,67.10
2017-07-17T02:31:50.894Z,67.10
2017-07-17T02:34:19.005Z,67.60
2017-07-17T02:36:47.058Z,67.10
2017-07-17T02:39:15.102Z,68.00
2017-07-17T02:41:43.950Z,69.50
2017-07-17T02:44:11.997Z,68.40
2017-07-17T02:46:40.051Z,68.70
2017-07-17T02:49:08.113Z,68.50
2017-07-17T02:51:36.952Z,69.60
2017-07-17T02:54:05.003Z,68.90
2017-07-17T02:56:33.069Z,68.50
2017-07-17T02:59:01.125Z,68.20
2017-07-17T03:01:29.965Z,68.30
2017-07-17T03:03:58.013Z,67.20
2017-07-17T03:06:26.066Z,67.30
2017-07-17T03:08:54.150Z,66.90
2017-07-17T03:11:22.197Z,66.90
2017-07-17T03:13:51.013Z,67.60
2017-07-17T03:16:19.115Z,67.70
2017-07-17T03:18:47.161Z,67.90
2017-07-17T03:21:15.606Z,67.50
2017-07-17T03:23:56.375Z,68.10
2017-07-17T03:26:25.190Z,69.20
2017-07-17T03:28:53.513Z,68.00
2017-07-17T03:31:21.988Z,67.80
2017-07-17T03:33:50.041Z,67.40
2017-07-17T03:36:18.088Z,67.80
2017-07-17T03:38:46.546Z,68.00
2017-07-17T03:41:15.366Z,69.10
2017-07-17T03:43:43.445Z,68.80
2017-07-17T03:46:11.494Z,68.70
2017-07-17T03:48:39.542Z,68.40
2017-07-17T03:51:08.382Z,68.10
2017-07-17T03:53:36.435Z,68.10
2017-07-17T03:56:04.497Z,67.80
2017-07-17T03:58:32.545Z,68.50
2017-07-17T04:01:00.629Z,68.70
2017-07-17T04:03:29.446Z,68.00
2017-07-17T04:05:57.504Z,67.90
2017-07-17T04:08:25.577Z,67.20
2017-07-17T04:10:54.018Z,67.00
2017-07-17T04:13:22.066Z,66.40
2017-07-17T04:15:50.142Z,66.30
2017-07-17T04:18:18.587Z,66.30
2017-07-17T04:20:47.034Z,66.40
2017-07-17T04:23:15.097Z,66.40
2017-07-17T04:25:43.205Z,66.00
2017-07-17T04:28:11.255Z,66.00
2017-07-17T04:30:39.301Z,66.70
2017-07-17T04:33:07.377Z,66.60
2017-07-17T04:35:35.426Z,66.40
2017-07-17T04:38:03.488Z,65.80
2017-07-17T04:40:31.541Z,65.80
2017-07-17T04:43:00.017Z,65.10
2017-07-17T04:45:28.065Z,64.70
2017-07-17T04:47:56.886Z,64.70
2017-07-17T04:50:24.953Z,64.90
2017-07-17T04:52:52.997Z,65.70
2017-07-17T04:55:21.850Z,65.40
2017-07-17T04:57:49.883Z,64.20
2017-07-17T05:00:17.949Z,64.10
2017-07-17T05:02:46.766Z,64.90
2017-07-17T05:05:14.829Z,64.70
2017-07-17T05:07:43.649Z,64.10
2017-07-17T05:10:11.725Z,65.00
2017-07-17T05:12:41.342Z,67.30
2017-07-17T05:15:09.794Z,64.50
2017-07-17T05:17:38.608Z,65.40
2017-07-17T05:20:06.689Z,67.10
2017-07-17T05:22:34.741Z,66.10
2017-07-17T05:25:02.791Z,66.00
2017-07-17T05:27:32.010Z,66.60
2017-07-17T05:30:00.065Z,65.90
2017-07-17T05:32:28.151Z,67.80
2017-07-17T05:34:56.985Z,67.20
2017-07-17T05:37:25.437Z,66.10
2017-07-17T05:39:53.527Z,64.10
2017-07-17T05:42:21.593Z,64.50
2017-07-17T05:44:50.037Z,62.30
2017-07-17T05:47:18.160Z,61.80
2017-07-17T05:49:46.965Z,60.00
2017-07-17T05:52:15.014Z,60.10
2017-07-17T05:54:43.103Z,60.00
2017-07-17T05:57:11.550Z,60.30
2017-07-17T05:59:39.598Z,60.50
2017-07-17T06:02:07.685Z,62.10
2017-07-17T06:04:35.737Z,62.80
2017-07-17T06:07:03.784Z,62.70
2017-07-17T06:09:31.865Z,61.60
2017-07-17T06:11:59.917Z,60.70
2017-07-17T06:14:27.970Z,59.80
2017-07-17T06:16:56.798Z,60.70
2017-07-17T06:19:25.645Z,60.20
2017-07-17T06:21:54.460Z,60.30
2017-07-17T06:24:22.505Z,61.00
2017-07-17T06:26:50.577Z,62.00
2017-07-17T06:29:18.621Z,61.50
2017-07-17T06:31:46.693Z,61.10
2017-07-17T06:34:14.749Z,60.60
2017-07-17T06:36:42.797Z,62.00
2017-07-17T06:39:11.001Z,60.90
2017-07-17T06:41:39.053Z,61.70
2017-07-17T06:44:07.106Z,60.10
2017-07-17T06:46:36.058Z,59.40
2017-07-17T06:49:04.106Z,58.40
2017-07-17T06:51:32.555Z,58.40
2017-07-17T06:54:00.722Z,59.40
2017-07-17T06:56:29.534Z,57.70
2017-07-17T06:58:58.976Z,57.00
2017-07-17T07:01:27.025Z,56.40
2017-07-17T07:03:55.090Z,56.00
2017-07-17T07:06:23.140Z,56.60
2017-07-17T07:08:51.585Z,54.20
2017-07-17T07:11:19.654Z,54.60
2017-07-17T07:13:47.705Z,52.10
2017-07-17T07:16:15.773Z,52.50
2017-07-17T07:18:43.853Z,52.80
2017-07-17T07:21:11.909Z,53.20
2017-07-17T07:23:39.960Z,50.70
2017-07-17T07:26:08.058Z,51.50
2017-07-17T07:28:36.113Z,49.60
2017-07-17T07:31:04.173Z,48.70
2017-07-17T07:33:32.230Z,50.00
2017-07-17T07:36:01.065Z,48.70
2017-07-17T07:38:29.135Z,48.30
2017-07-17T07:40:57.181Z,48.80
2017-07-17T07:43:25.230Z,48.90
2017-07-17T07:45:54.063Z,48.30
2017-07-17T07:48:22.134Z,48.10
2017-07-17T07:50:50.233Z,47.70
2017-07-17T07:53:18.282Z,46.60
2017-07-17T07:55:46.334Z,44.30
2017-07-17T07:58:14.407Z,44.80
2017-07-17T08:00:42.457Z,44.50
2017-07-17T08:03:10.509Z,44.00
2017-07-17T08:05:39.150Z,44.40
2017-07-17T08:08:07.913Z,43.60
2017-07-17T08:10:35.976Z,44.20
2017-07-17T08:13:04.061Z,44.40
2017-07-17T08:15:32.112Z,42.80
2017-07-17T08:18:00.165Z,43.30
2017-07-17T08:20:28.993Z,44.80
2017-07-17T08:22:57.069Z,44.80
2017-07-17T08:25:25.116Z,43.80
2017-07-17T08:27:53.250Z,44.30
2017-07-17T08:30:21.338Z,44.70
2017-07-17T08:32:49.391Z,47.20
2017-07-17T08:35:17.438Z,45.70
2017-07-17T08:37:45.513Z,46.20
2017-07-17T08:40:13.563Z,43.20
2017-07-17T08:42:41.614Z,44.10
2017-07-17T08:45:10.453Z,44.70
2017-07-17T08:47:38.497Z,44.90
2017-07-17T08:50:06.570Z,44.10
2017-07-17T08:52:34.622Z,41.10
2017-07-17T08:55:03.430Z,43.60
2017-07-17T08:57:31.505Z,43.50
2017-07-17T08:59:59.949Z,42.90
2017-07-17T09:02:28.770Z,43.00
2017-07-17T09:04:56.845Z,42.90
2017-07-17T09:07:24.897Z,43.20
2017-07-17T09:09:53.714Z,41.90
2017-07-17T09:12:21.826Z,41.80
2017-07-17T09:14:49.873Z,40.70
2017-07-17T09:17:17.922Z,40.10
2017-07-17T09:19:45.987Z,40.20
2017-07-17T09:22:14.037Z,40.60
2017-07-17T09:24:42.874Z,40.80
2017-07-17T09:27:10.925Z,41.00
2017-07-17T09:29:38.987Z,41.60
2017-07-17T09:32:07.053Z,42.10
2017-07-17T09:34:35.102Z,39.50
2017-07-17T09:37:03.919Z,39.30
2017-07-17T09:39:32.381Z,38.50
2017-07-17T09:42:01.201Z,37.10
2017-07-17T09:44:29.272Z,37.00
2017-07-17T09:46:57.322Z,37.90
2017-07-17T09:49:26.197Z,37.60
2017-07-17T09:51:55.014Z,38.00
2017-07-17T09:54:23.066Z,37.10
2017-07-17T09:56:51.897Z,38.00
2017-07-17T09:59:19.987Z,38.00
2017-07-17T10:01:48.038Z,36.90
2017-07-17T10:04:16.081Z,38.40
2017-07-17T10:06:44.163Z,38.40
2017-07-17T10:09:12.217Z,39.10
2017-07-17T10:11:41.057Z,38.70
2017-07-17T10:14:09.117Z,37.30
2017-07-17T10:16:37.163Z,36.60
2017-07-17T10:19:05.209Z,38.50
2017-07-17T10:21:34.610Z,37.30
2017-07-17T10:24:02.657Z,37.30
2017-07-17T10:26:30.710Z,37.10
2017-07-17T10:28:58.774Z,38.50
2017-07-17T10:31:26.853Z,38.80
2017-07-17T10:33:54.910Z,37.80
2017-07-17T10:36:22.957Z,36.50
2017-07-17T10:38:51.025Z,37.70
2017-07-17T10:41:19.842Z,33.90
2017-07-17T10:43:47.916Z,33.90
2017-07-17T10:46:15.966Z,33.50
2017-07-17T10:48:44.790Z,34.60
2017-07-17T10:51:12.853Z,34.60
2017-07-17T10:53:40.921Z,32.80
2017-07-17T10:56:09.070Z,33.50
2017-07-17T10:58:37.129Z,34.20
2017-07-17T11:01:05.946Z,33.90
2017-07-17T11:03:34.034Z,33.70
2017-07-17T11:06:02.113Z,33.20
2017-07-17T11:08:30.168Z,34.30
2017-07-17T11:10:58.240Z,34.90
2017-07-17T11:13:26.290Z,35.00
2017-07-17T11:15:54.370Z,34.90
2017-07-17T11:18:22.422Z,36.00
2017-07-17T11:20:51.238Z,37.40
2017-07-17T11:23:19.301Z,37.30
2017-07-17T11:25:47.354Z,37.80
2017-07-17T11:28:16.192Z,37.10
2017-07-17T11:30:44.240Z,37.00
2017-07-17T11:33:12.317Z,36.60
2017-07-17T11:35:40.365Z,36.30
2017-07-17T11:38:08.445Z,34.30
2017-07-17T11:40:36.526Z,33.00
2017-07-17T11:43:04.590Z,33.20
2017-07-17T11:45:32.675Z,33.90
2017-07-17T12:00:35.855Z,27.30
2017-07-17T12:03:03.916Z,27.70
2017-07-17T12:08:00.083Z,29.00
2017-07-17T12:10:28.147Z,28.50
2017-07-17T12:12:56.231Z,28.90
2017-07-17T12:15:24.268Z,28.90
2017-07-17T12:17:52.350Z,30.30
2017-07-17T12:20:21.159Z,31.40
2017-07-17T12:22:49.200Z,30.70
2017-07-17T12:25:17.278Z,30.00
2017-07-17T12:27:45.317Z,30.80
2017-07-17T12:30:13.365Z,31.10
2017-07-17T12:32:41.436Z,31.90
2017-07-17T12:35:09.514Z,31.90
2017-07-17T12:37:37.566Z,32.00
2017-07-17T12:40:05.613Z,33.30
2017-07-17T12:42:33.676Z,31.30
2017-07-17T12:45:01.784Z,30.50
2017-07-17T12:47:29.833Z,31.20
2017-07-17T12:49:57.884Z,31.40
2017-07-17T12:52:25.959Z,32.00
2017-07-17T12:54:54.018Z,30.10
2017-07-17T12:57:22.845Z,31.60
2017-07-17T12:59:50.913Z,30.70
2017-07-17T13:02:18.998Z,34.70
2017-07-17T13:04:47.044Z,32.80
2017-07-17T13:07:15.093Z,32.50
2017-07-17T13:09:43.916Z,30.60
2017-07-17T13:12:12.003Z,29.70
2017-07-17T13:14:40.049Z,30.20
2017-07-17T13:17:08.489Z,30.00
2017-07-17T13:19:36.590Z,30.90
2017-07-17T13:22:05.029Z,30.50
2017-07-17T13:24:33.083Z,33.00
2017-07-17T13:27:01.557Z,30.40
2017-07-17T13:29:30.002Z,30.10
2017-07-17T13:31:58.824Z,33.80
2017-07-17T13:34:27.288Z,29.90
2017-07-17T13:36:55.734Z,31.70
2017-07-17T13:39:23.777Z,31.00
2017-07-17T13:41:52.252Z,31.30
2017-07-17T13:44:20.298Z,31.40
2017-07-17T13:46:48.340Z,32.50
2017-07-17T13:49:16.812Z,31.30
2017-07-17T13:51:45.261Z,31.60
2017-07-17T13:54:13.314Z,32.20
2017-07-17T13:56:41.788Z,32.60
2017-07-17T13:59:10.244Z,32.20
2017-07-17T14:01:39.048Z,34.70
2017-07-17T14:04:07.509Z,35.30
2017-07-17T14:06:36.328Z,35.60
2017-07-17T14:09:04.721Z,35.50
2017-07-17T14:11:33.499Z,36.10
2017-07-17T14:14:01.563Z,36.00
2017-07-17T14:16:29.629Z,36.50
2017-07-17T14:18:57.673Z,36.50
2017-07-17T14:21:26.117Z,36.40
2017-07-17T14:23:54.584Z,37.10
2017-07-17T14:26:22.643Z,37.40
2017-07-17T14:28:50.685Z,37.90
2017-07-17T14:31:18.758Z,37.70
2017-07-17T14:33:47.572Z,37.60
2017-07-17T14:36:15.646Z,39.10
2017-07-17T14:38:43.688Z,37.10
2017-07-17T14:41:12.496Z,37.60
2017-07-17T14:43:40.569Z,37.50
2017-07-17T14:46:08.623Z,37.90
2017-07-17T14:48:37.429Z,38.60
2017-07-17T14:51:05.501Z,37.70
2017-07-17T14:53:33.561Z,36.70
2017-07-17T14:56:02.410Z,36.40
2017-07-17T14:58:30.487Z,36.40
2017-07-17T15:00:58.536Z,37.70
2017-07-17T15:03:26.589Z,37.50
2017-07-17T15:05:54.642Z,35.90
2017-07-17T15:08:22.718Z,34.00
2017-07-17T15:10:50.764Z,33.40
2017-07-17T15:13:19.576Z,34.30
2017-07-17T15:15:48.043Z,34.10
2017-07-17T15:18:16.869Z,33.00
2017-07-17T15:20:44.943Z,32.60
2017-07-17T15:23:12.988Z,32.80
2017-07-17T15:25:41.033Z,33.30
2017-07-17T15:28:09.112Z,32.90
2017-07-17T15:30:37.924Z,34.30
2017-07-17T15:33:05.973Z,32.50
2017-07-17T15:35:34.823Z,33.80
2017-07-17T15:38:02.869Z,30.50
2017-07-17T15:40:30.926Z,30.40
2017-07-17T15:42:58.986Z,31.90
2017-07-17T15:45:27.820Z,29.80
2017-07-17T15:47:55.864Z,30.00
2017-07-17T15:50:23.915Z,29.90
2017-07-17T15:52:52.746Z,29.80
2017-07-17T15:55:20.800Z,29.30
2017-07-17T15:57:48.845Z,29.10
2017-07-17T16:00:17.677Z,31.10
2017-07-17T16:02:45.729Z,29.40
2017-07-17T16:05:13.780Z,29.90
2017-07-17T16:07:41.860Z,31.40
2017-07-17T16:10:10.306Z,30.70
2017-07-17T16:12:38.740Z,31.30
2017-07-17T16:15:07.205Z,31.20
2017-07-17T16:17:35.253Z,31.50
2017-07-17T16:20:04.076Z,31.90
2017-07-17T16:22:32.141Z,31.80
2017-07-17T16:25:00.255Z,33.60
2017-07-17T16:27:28.257Z,33.80
2017-07-17T16:29:56.357Z,33.70
2017-07-17T16:32:24.417Z,33.60
2017-07-17T16:34:52.860Z,33.80
2017-07-17T16:37:21.337Z,33.50
2017-07-17T16:39:49.380Z,34.00
2017-07-17T16:42:17.434Z,33.60
2017-07-17T16:44:45.551Z,34.10
2017-07-17T16:47:13.585Z,32.90
2017-07-17T16:49:41.634Z,33.60
2017-07-17T16:52:10.466Z,34.70
2017-07-17T16:54:38.513Z,35.00
2017-07-17T16:57:06.976Z,34.70
2017-07-17T16:59:35.420Z,35.30
2017-07-17T17:02:03.476Z,35.40
2017-07-17T17:04:31.545Z,34.40
2017-07-17T17:06:59.601Z,35.50
2017-07-17T17:09:27.644Z,34.60
2017-07-17T17:11:56.111Z,35.00
2017-07-17T17:14:24.154Z,36.00
2017-07-17T17:16:52.623Z,36.40
2017-07-17T17:19:21.060Z,37.30
2017-07-17T17:21:49.892Z,37.70
2017-07-17T17:24:17.957Z,37.10
2017-07-17T17:26:46.001Z,37.70
2017-07-17T17:29:14.065Z,37.80
2017-07-17T17:31:42.881Z,38.60
2017-07-17T17:34:10.962Z,38.30
2017-07-17T17:36:39.016Z,38.80
2017-07-17T17:39:07.061Z,38.80
2017-07-17T17:41:35.942Z,40.30
2017-07-17T17:44:04.086Z,39.80
2017-07-17T17:46:32.502Z,39.90
2017-07-17T17:49:00.973Z,40.10
2017-07-17T17:51:29.024Z,40.40
2017-07-17T17:53:57.081Z,40.20
2017-07-17T17:56:25.620Z,40.90
2017-07-17T17:58:53.653Z,40.80
2017-07-17T18:01:22.090Z,41.40
2017-07-17T18:03:50.581Z,41.30
2017-07-17T18:06:18.638Z,41.50
2017-07-17T18:08:46.702Z,41.90
2017-07-17T18:11:15.544Z,42.20
2017-07-17T18:13:43.609Z,42.70
2017-07-17T18:16:11.689Z,42.60
2017-07-17T18:18:39.732Z,43.40
2017-07-17T18:21:07.781Z,43.50
2017-07-17T18:23:35.860Z,43.70
2017-07-17T18:26:03.914Z,44.10
2017-07-17T18:28:32.726Z,45.00
2017-07-17T18:31:01.238Z,44.80
2017-07-17T18:33:29.253Z,45.00
2017-07-17T18:35:58.100Z,46.00
2017-07-17T18:38:26.146Z,46.20
2017-07-17T18:40:54.589Z,46.70
2017-07-17T18:43:23.032Z,47.40
2017-07-17T18:45:51.882Z,48.00
2017-07-17T18:48:20.329Z,48.50
2017-07-17T18:50:48.377Z,48.80
2017-07-17T18:53:16.861Z,49.50
2017-07-17T18:55:44.909Z,50.00
2017-07-17T18:58:13.357Z,50.40
2017-07-17T19:00:41.830Z,50.60
2017-07-17T19:03:10.636Z,51.80
2017-07-17T19:05:38.682Z,51.20
2017-07-17T19:08:07.536Z,52.80
2017-07-17T19:10:36.019Z,52.10
2017-07-17T19:13:04.425Z,52.50
2017-07-17T19:15:32.508Z,53.10
2017-07-17T19:18:01.317Z,54.60
2017-07-17T19:20:29.365Z,53.30
2017-07-17T19:22:58.205Z,53.60
2017-07-17T19:25:26.252Z,54.20
2017-07-17T19:27:54.299Z,54.30
2017-07-17T19:30:22.381Z,54.80
2017-07-17T19:32:51.198Z,55.60
2017-07-17T19:35:19.645Z,55.60
2017-07-17T19:37:48.473Z,56.10
2017-07-17T19:40:16.981Z,56.10
2017-07-17T19:42:45.037Z,56.40
2017-07-17T19:45:13.493Z,56.20
2017-07-17T19:47:41.964Z,56.50
2017-07-17T19:50:10.102Z,56.70
2017-07-17T19:52:38.154Z,56.70
2017-07-17T19:55:06.201Z,56.80
2017-07-17T19:57:34.402Z,57.10
2017-07-17T20:00:02.422Z,57.60
2017-07-17T20:02:30.871Z,57.50
2017-07-17T20:04:58.946Z,57.90
2017-07-17T20:07:27.409Z,58.30
2017-07-17T20:09:55.439Z,58.50
2017-07-17T20:12:23.498Z,58.90
2017-07-17T20:14:52.344Z,59.60
2017-07-17T20:17:20.405Z,59.50
2017-07-17T20:19:48.453Z,59.30
2017-07-17T20:22:16.557Z,59.20
2017-07-17T20:24:44.610Z,59.40
2017-07-17T20:27:12.676Z,59.50
2017-07-17T20:29:40.764Z,59.70
2017-07-17T20:32:08.813Z,59.50
2017-07-17T20:34:36.856Z,59.40
2017-07-17T20:37:05.685Z,59.90
2017-07-17T20:39:33.775Z,59.80
2017-07-17T20:42:01.823Z,60.10
2017-07-17T20:44:29.902Z,60.20
2017-07-17T20:46:58.076Z,60.50
2017-07-17T20:49:26.158Z,60.60
2017-07-17T20:51:54.193Z,60.60
2017-07-17T20:54:22.273Z,61.30
2017-07-17T20:56:50.325Z,61.80
2017-07-17T20:59:19.145Z,62.10
2017-07-17T21:01:47.226Z,62.00
2017-07-17T21:04:15.269Z,61.90
2017-07-17T21:06:43.317Z,62.70
2017-07-17T21:09:11.402Z,63.00
2017-07-17T21:11:40.249Z,62.80
2017-07-17T21:14:08.401Z,62.80
2017-07-17T21:16:36.523Z,62.70
2017-07-17T21:19:04.645Z,62.60
2017-07-17T21:21:32.701Z,62.40
2017-07-17T21:24:00.794Z,62.10
2017-07-17T21:26:28.906Z,62.30
2017-07-17T21:28:56.967Z,61.90
2017-07-17T21:31:25.015Z,62.10
2017-07-17T21:33:53.089Z,62.10
2017-07-17T21:36:21.137Z,61.40
2017-07-17T21:38:49.221Z,61.40
2017-07-17T21:41:17.277Z,61.30
2017-07-17T21:43:45.325Z,59.90
2017-07-17T21:46:14.264Z,60.10
2017-07-17T21:48:42.319Z,60.10
2017-07-17T21:51:10.359Z,59.90
2017-07-17T21:53:39.210Z,61.40
2017-07-17T21:56:07.266Z,60.70
2017-07-17T21:58:35.312Z,61.00
2017-07-17T22:01:03.390Z,60.20
2017-07-17T22:03:31.446Z,60.40
2017-07-17T22:06:00.263Z,61.30
2017-07-17T22:08:28.333Z,60.60
2017-07-17T22:10:56.777Z,60.50
2017-07-17T22:13:25.623Z,61.70
2017-07-17T22:15:53.669Z,61.70
2017-07-17T22:18:21.722Z,61.80
2017-07-17T22:20:50.549Z,62.30
2017-07-17T22:23:18.599Z,62.10
2017-07-17T22:25:46.680Z,62.60
2017-07-17T22:28:14.729Z,62.60
2017-07-17T22:30:42.778Z,62.90
2017-07-17T22:33:10.850Z,62.80
2017-07-17T22:35:38.898Z,63.00
2017-07-17T22:38:06.969Z,62.60
2017-07-17T22:40:35.418Z,62.40
2017-07-17T22:43:03.466Z,63.00
2017-07-17T22:45:32.298Z,62.90
2017-07-17T22:48:00.370Z,62.40
2017-07-17T22:50:28.413Z,62.30
2017-07-17T22:52:57.224Z,61.70
2017-07-17T22:55:26.064Z,62.00
2017-07-17T22:57:54.883Z,62.20
2017-07-17T23:00:22.930Z,61.90
2017-07-17T23:02:51.857Z,61.40
2017-07-17T23:05:20.028Z,60.90
2017-07-17T23:07:48.517Z,60.70
2017-07-17T23:10:16.590Z,61.50
2017-07-17T23:12:44.674Z,61.00
2017-07-17T23:15:12.828Z,60.10
2017-07-17T23:17:41.636Z,60.10
2017-07-17T23:20:09.696Z,59.50
2017-07-17T23:22:38.171Z,60.10
2017-07-17T23:36:57.319Z,58.70
2017-07-17T23:39:25.435Z,57.70
2017-07-17T23:41:53.598Z,58.40
2017-07-17T23:44:21.724Z,58.70
2017-07-17T23:46:49.793Z,57.60
2017-07-17T23:49:18.733Z,57.40
2017-07-17T23:51:46.913Z,58.60
2017-07-17T23:54:14.996Z,57.80
2017-07-17T23:56:43.875Z,58.50
2017-07-17T23:59:12.046Z,57.70
